sensor_id;sensor_type;location;lat;lon;timestamp;P1;durP1;ratioP1;P2;durP2;ratioP2
2972;SDS011;1496;51.404;7.232;2023-05-07T00:00:15;11.03;;;7.10;;
2972;SDS011;1496;51.404;7.232;2023-05-07T00:02:45;11.10;;;6.37;;
2972;SDS011;1496;51.404;7.232;2023-05-07T00:05:17;13.10;;;6.10;;
2972;SDS011;1496;51.404;7.232;2023-05-07T00:07:47;12.67;;;7.20;;
2972;SDS011;1496;51.404;7.232;2023-05-07T00:10:18;13.43;;;6.10;;
2972;SDS011;1496;51.404;7.232;2023-05-07T00:12:46;12.97;;;6.83;;
2972;SDS011;1496;51.404;7.232;2023-05-07T00:15:13;8.40;;;6.80;;
2972;SDS011;1496;51.404;7.232;2023-05-07T00:17:41;7.80;;;6.83;;
2972;SDS011;1496;51.404;7.232;2023-05-07T00:20:08;11.80;;;6.93;;
2972;SDS011;1496;51.404;7.232;2023-05-07T00:22:37;9.43;;;6.60;;
2972;SDS011;1496;51.404;7.232;2023-05-07T00:25:04;10.60;;;6.77;;
2972;SDS011;1496;51.404;7.232;2023-05-07T00:27:31;8.90;;;7.07;;
2972;SDS011;1496;51.404;7.232;2023-05-07T00:29:58;7.43;;;6.40;;
2972;SDS011;1496;51.404;7.232;2023-05-07T00:32:26;8.13;;;6.87;;
2972;SDS011;1496;51.404;7.232;2023-05-07T00:34:53;9.10;;;6.93;;
2972;SDS011;1496;51.404;7.232;2023-05-07T00:37:20;8.90;;;7.13;;
2972;SDS011;1496;51.404;7.232;2023-05-07T00:39:47;8.23;;;6.53;;
2972;SDS011;1496;51.404;7.232;2023-05-07T00:42:14;9.80;;;7.10;;
2972;SDS011;1496;51.404;7.232;2023-05-07T00:44:42;11.53;;;6.73;;
2972;SDS011;1496;51.404;7.232;2023-05-07T00:47:09;8.97;;;6.53;;
2972;SDS011;1496;51.404;7.232;2023-05-07T00:49:41;9.93;;;6.53;;
2972;SDS011;1496;51.404;7.232;2023-05-07T00:52:14;7.13;;;6.43;;
2972;SDS011;1496;51.404;7.232;2023-05-07T00:54:42;9.33;;;7.10;;
2972;SDS011;1496;51.404;7.232;2023-05-07T00:57:10;8.80;;;7.37;;
2972;SDS011;1496;51.404;7.232;2023-05-07T00:59:37;11.67;;;8.77;;
2972;SDS011;1496;51.404;7.232;2023-05-07T01:02:06;9.00;;;8.10;;
2972;SDS011;1496;51.404;7.232;2023-05-07T01:04:34;12.90;;;8.03;;
2972;SDS011;1496;51.404;7.232;2023-05-07T01:07:02;8.80;;;7.23;;
2972;SDS011;1496;51.404;7.232;2023-05-07T01:09:32;8.13;;;7.40;;
2972;SDS011;1496;51.404;7.232;2023-05-07T01:12:01;9.87;;;7.50;;
2972;SDS011;1496;51.404;7.232;2023-05-07T01:14:31;9.23;;;7.07;;
2972;SDS011;1496;51.404;7.232;2023-05-07T01:16:59;11.63;;;7.50;;
2972;SDS011;1496;51.404;7.232;2023-05-07T01:19:28;9.20;;;7.80;;
2972;SDS011;1496;51.404;7.232;2023-05-07T01:21:59;8.63;;;6.93;;
2972;SDS011;1496;51.404;7.232;2023-05-07T01:24:33;10.60;;;7.47;;
2972;SDS011;1496;51.404;7.232;2023-05-07T01:27:03;9.57;;;7.00;;
2972;SDS011;1496;51.404;7.232;2023-05-07T01:29:33;9.90;;;8.33;;
2972;SDS011;1496;51.404;7.232;2023-05-07T01:32:01;10.83;;;8.57;;
2972;SDS011;1496;51.404;7.232;2023-05-07T01:34:30;10.00;;;7.97;;
2972;SDS011;1496;51.404;7.232;2023-05-07T01:37:00;15.63;;;8.57;;
2972;SDS011;1496;51.404;7.232;2023-05-07T01:39:28;8.60;;;7.10;;
2972;SDS011;1496;51.404;7.232;2023-05-07T01:41:55;10.23;;;7.70;;
2972;SDS011;1496;51.404;7.232;2023-05-07T01:44:23;12.17;;;7.97;;
2972;SDS011;1496;51.404;7.232;2023-05-07T01:46:52;8.97;;;7.47;;
2972;SDS011;1496;51.404;7.232;2023-05-07T01:49:21;9.13;;;7.90;;
2972;SDS011;1496;51.404;7.232;2023-05-07T01:51:47;9.83;;;8.20;;
2972;SDS011;1496;51.404;7.232;2023-05-07T01:54:13;11.67;;;9.60;;
2972;SDS011;1496;51.404;7.232;2023-05-07T01:56:43;9.40;;;7.50;;
2972;SDS011;1496;51.404;7.232;2023-05-07T01:59:13;11.30;;;8.30;;
2972;SDS011;1496;51.404;7.232;2023-05-07T02:01:40;11.13;;;8.17;;
2972;SDS011;1496;51.404;7.232;2023-05-07T02:04:09;10.40;;;7.43;;
2972;SDS011;1496;51.404;7.232;2023-05-07T02:06:39;15.63;;;8.53;;
2972;SDS011;1496;51.404;7.232;2023-05-07T02:09:09;10.43;;;8.00;;
2972;SDS011;1496;51.404;7.232;2023-05-07T02:11:39;10.47;;;7.13;;
2972;SDS011;1496;51.404;7.232;2023-05-07T02:14:06;8.27;;;7.40;;
2972;SDS011;1496;51.404;7.232;2023-05-07T02:16:33;8.77;;;7.87;;
2972;SDS011;1496;51.404;7.232;2023-05-07T02:19:00;9.60;;;6.80;;
2972;SDS011;1496;51.404;7.232;2023-05-07T02:21:28;25.73;;;9.93;;
2972;SDS011;1496;51.404;7.232;2023-05-07T02:23:55;11.50;;;7.87;;
2972;SDS011;1496;51.404;7.232;2023-05-07T02:26:23;9.37;;;8.30;;
2972;SDS011;1496;51.404;7.232;2023-05-07T02:28:52;10.77;;;8.50;;
2972;SDS011;1496;51.404;7.232;2023-05-07T02:31:24;15.00;;;7.80;;
2972;SDS011;1496;51.404;7.232;2023-05-07T02:33:51;7.73;;;6.77;;
2972;SDS011;1496;51.404;7.232;2023-05-07T02:36:19;12.33;;;7.80;;
2972;SDS011;1496;51.404;7.232;2023-05-07T02:39:16;10.70;;;7.80;;
2972;SDS011;1496;51.404;7.232;2023-05-07T02:41:43;11.07;;;8.40;;
2972;SDS011;1496;51.404;7.232;2023-05-07T02:44:09;10.53;;;7.67;;
2972;SDS011;1496;51.404;7.232;2023-05-07T02:46:37;10.90;;;7.83;;
2972;SDS011;1496;51.404;7.232;2023-05-07T02:49:07;10.30;;;8.47;;
2972;SDS011;1496;51.404;7.232;2023-05-07T02:51:34;10.13;;;7.60;;
2972;SDS011;1496;51.404;7.232;2023-05-07T02:54:06;7.93;;;7.13;;
2972;SDS011;1496;51.404;7.232;2023-05-07T02:56:34;11.70;;;7.70;;
2972;SDS011;1496;51.404;7.232;2023-05-07T02:59:01;12.50;;;7.50;;
2972;SDS011;1496;51.404;7.232;2023-05-07T03:01:34;12.23;;;6.93;;
2972;SDS011;1496;51.404;7.232;2023-05-07T03:04:06;9.27;;;7.50;;
2972;SDS011;1496;51.404;7.232;2023-05-07T03:06:33;10.10;;;7.90;;
2972;SDS011;1496;51.404;7.232;2023-05-07T03:09:02;12.40;;;7.90;;
2972;SDS011;1496;51.404;7.232;2023-05-07T03:11:29;11.60;;;7.50;;
2972;SDS011;1496;51.404;7.232;2023-05-07T03:13:56;16.87;;;7.70;;
2972;SDS011;1496;51.404;7.232;2023-05-07T03:16:23;8.30;;;6.40;;
2972;SDS011;1496;51.404;7.232;2023-05-07T03:18:50;7.17;;;6.10;;
2972;SDS011;1496;51.404;7.232;2023-05-07T03:21:18;8.60;;;7.50;;
2972;SDS011;1496;51.404;7.232;2023-05-07T03:23:44;8.57;;;6.30;;
2972;SDS011;1496;51.404;7.232;2023-05-07T03:26:11;11.10;;;6.90;;
2972;SDS011;1496;51.404;7.232;2023-05-07T03:28:37;7.23;;;6.53;;
2972;SDS011;1496;51.404;7.232;2023-05-07T03:31:07;7.87;;;6.63;;
2972;SDS011;1496;51.404;7.232;2023-05-07T03:33:38;9.90;;;7.43;;
2972;SDS011;1496;51.404;7.232;2023-05-07T03:36:27;9.73;;;7.07;;
2972;SDS011;1496;51.404;7.232;2023-05-07T03:38:55;12.10;;;7.17;;
2972;SDS011;1496;51.404;7.232;2023-05-07T03:41:24;11.53;;;7.97;;
2972;SDS011;1496;51.404;7.232;2023-05-07T03:43:54;8.57;;;7.70;;
2972;SDS011;1496;51.404;7.232;2023-05-07T03:46:21;11.33;;;8.10;;
2972;SDS011;1496;51.404;7.232;2023-05-07T03:48:54;9.67;;;7.70;;
2972;SDS011;1496;51.404;7.232;2023-05-07T03:51:22;8.00;;;7.20;;
2972;SDS011;1496;51.404;7.232;2023-05-07T03:53:52;13.63;;;8.40;;
2972;SDS011;1496;51.404;7.232;2023-05-07T03:56:26;9.63;;;7.80;;
2972;SDS011;1496;51.404;7.232;2023-05-07T03:58:56;10.70;;;7.93;;
2972;SDS011;1496;51.404;7.232;2023-05-07T04:01:23;8.70;;;7.87;;
2972;SDS011;1496;51.404;7.232;2023-05-07T04:03:51;10.80;;;8.10;;
2972;SDS011;1496;51.404;7.232;2023-05-07T04:06:19;9.37;;;8.37;;
2972;SDS011;1496;51.404;7.232;2023-05-07T04:08:48;10.33;;;8.33;;
2972;SDS011;1496;51.404;7.232;2023-05-07T04:11:17;11.10;;;9.30;;
2972;SDS011;1496;51.404;7.232;2023-05-07T04:13:45;10.67;;;8.50;;
2972;SDS011;1496;51.404;7.232;2023-05-07T04:16:14;10.27;;;9.27;;
2972;SDS011;1496;51.404;7.232;2023-05-07T04:18:41;10.90;;;9.30;;
2972;SDS011;1496;51.404;7.232;2023-05-07T04:21:16;18.03;;;11.30;;
2972;SDS011;1496;51.404;7.232;2023-05-07T04:23:55;13.23;;;10.37;;
2972;SDS011;1496;51.404;7.232;2023-05-07T04:26:22;16.47;;;12.80;;
2972;SDS011;1496;51.404;7.232;2023-05-07T04:28:51;16.70;;;14.00;;
2972;SDS011;1496;51.404;7.232;2023-05-07T04:31:19;15.50;;;13.20;;
2972;SDS011;1496;51.404;7.232;2023-05-07T04:33:50;14.83;;;12.30;;
2972;SDS011;1496;51.404;7.232;2023-05-07T04:36:19;13.50;;;10.80;;
2972;SDS011;1496;51.404;7.232;2023-05-07T04:39:29;16.63;;;11.00;;
2972;SDS011;1496;51.404;7.232;2023-05-07T04:46:07;11.03;;;9.87;;
2972;SDS011;1496;51.404;7.232;2023-05-07T04:48:35;11.43;;;9.17;;
2972;SDS011;1496;51.404;7.232;2023-05-07T04:51:04;15.83;;;9.60;;
2972;SDS011;1496;51.404;7.232;2023-05-07T04:53:33;13.60;;;8.63;;
2972;SDS011;1496;51.404;7.232;2023-05-07T04:56:01;9.00;;;7.47;;
2972;SDS011;1496;51.404;7.232;2023-05-07T04:58:33;12.07;;;9.77;;
2972;SDS011;1496;51.404;7.232;2023-05-07T05:01:02;10.27;;;9.00;;
2972;SDS011;1496;51.404;7.232;2023-05-07T05:03:31;10.93;;;9.77;;
2972;SDS011;1496;51.404;7.232;2023-05-07T05:05:59;12.90;;;10.40;;
2972;SDS011;1496;51.404;7.232;2023-05-07T05:08:30;14.87;;;11.20;;
2972;SDS011;1496;51.404;7.232;2023-05-07T05:11:02;11.63;;;10.30;;
2972;SDS011;1496;51.404;7.232;2023-05-07T05:13:31;14.13;;;11.40;;
2972;SDS011;1496;51.404;7.232;2023-05-07T05:15:57;16.10;;;12.60;;
2972;SDS011;1496;51.404;7.232;2023-05-07T05:18:26;13.87;;;11.67;;
2972;SDS011;1496;51.404;7.232;2023-05-07T05:20:54;14.90;;;11.20;;
2972;SDS011;1496;51.404;7.232;2023-05-07T05:23:21;15.60;;;12.67;;
2972;SDS011;1496;51.404;7.232;2023-05-07T05:25:48;14.63;;;10.43;;
2972;SDS011;1496;51.404;7.232;2023-05-07T05:28:15;12.37;;;11.00;;
2972;SDS011;1496;51.404;7.232;2023-05-07T05:30:42;13.57;;;11.30;;
2972;SDS011;1496;51.404;7.232;2023-05-07T05:33:10;13.70;;;12.20;;
2972;SDS011;1496;51.404;7.232;2023-05-07T05:35:36;16.07;;;12.07;;
2972;SDS011;1496;51.404;7.232;2023-05-07T05:38:09;13.60;;;11.60;;
2972;SDS011;1496;51.404;7.232;2023-05-07T05:40:36;14.43;;;12.13;;
2972;SDS011;1496;51.404;7.232;2023-05-07T05:43:03;15.93;;;12.53;;
2972;SDS011;1496;51.404;7.232;2023-05-07T05:45:31;14.30;;;12.40;;
2972;SDS011;1496;51.404;7.232;2023-05-07T05:47:57;16.73;;;12.80;;
2972;SDS011;1496;51.404;7.232;2023-05-07T05:50:25;15.23;;;11.90;;
2972;SDS011;1496;51.404;7.232;2023-05-07T05:52:52;16.03;;;13.17;;
2972;SDS011;1496;51.404;7.232;2023-05-07T05:55:28;15.23;;;12.27;;
2972;SDS011;1496;51.404;7.232;2023-05-07T05:58:01;12.17;;;10.97;;
2972;SDS011;1496;51.404;7.232;2023-05-07T06:00:30;13.43;;;10.13;;
2972;SDS011;1496;51.404;7.232;2023-05-07T06:03:02;13.07;;;11.67;;
2972;SDS011;1496;51.404;7.232;2023-05-07T06:05:30;15.00;;;11.03;;
2972;SDS011;1496;51.404;7.232;2023-05-07T06:08:00;11.67;;;10.40;;
2972;SDS011;1496;51.404;7.232;2023-05-07T06:10:32;11.57;;;9.83;;
2972;SDS011;1496;51.404;7.232;2023-05-07T06:13:00;14.43;;;10.30;;
2972;SDS011;1496;51.404;7.232;2023-05-07T06:15:27;10.83;;;8.97;;
2972;SDS011;1496;51.404;7.232;2023-05-07T06:17:54;10.57;;;8.33;;
2972;SDS011;1496;51.404;7.232;2023-05-07T06:20:23;9.80;;;8.50;;
2972;SDS011;1496;51.404;7.232;2023-05-07T06:22:50;11.10;;;8.23;;
2972;SDS011;1496;51.404;7.232;2023-05-07T06:28:21;10.03;;;8.00;;
2972;SDS011;1496;51.404;7.232;2023-05-07T06:30:47;14.73;;;8.13;;
2972;SDS011;1496;51.404;7.232;2023-05-07T06:33:16;9.20;;;8.30;;
2972;SDS011;1496;51.404;7.232;2023-05-07T06:35:45;12.53;;;7.53;;
2972;SDS011;1496;51.404;7.232;2023-05-07T06:38:12;12.50;;;7.80;;
2972;SDS011;1496;51.404;7.232;2023-05-07T06:40:41;11.57;;;8.20;;
2972;SDS011;1496;51.404;7.232;2023-05-07T06:43:07;10.13;;;7.10;;
2972;SDS011;1496;51.404;7.232;2023-05-07T06:45:45;11.47;;;7.23;;
2972;SDS011;1496;51.404;7.232;2023-05-07T06:48:13;9.43;;;6.23;;
2972;SDS011;1496;51.404;7.232;2023-05-07T06:50:53;10.67;;;6.47;;
2972;SDS011;1496;51.404;7.232;2023-05-07T06:53:26;10.50;;;7.07;;
2972;SDS011;1496;51.404;7.232;2023-05-07T06:55:55;10.13;;;6.10;;
2972;SDS011;1496;51.404;7.232;2023-05-07T06:58:25;6.57;;;5.73;;
2972;SDS011;1496;51.404;7.232;2023-05-07T07:00:52;10.77;;;6.93;;
2972;SDS011;1496;51.404;7.232;2023-05-07T07:03:20;7.40;;;5.27;;
2972;SDS011;1496;51.404;7.232;2023-05-07T07:05:46;10.50;;;6.20;;
2972;SDS011;1496;51.404;7.232;2023-05-07T07:08:16;8.37;;;5.67;;
2972;SDS011;1496;51.404;7.232;2023-05-07T07:10:44;7.37;;;5.43;;
2972;SDS011;1496;51.404;7.232;2023-05-07T07:13:11;7.33;;;5.43;;
2972;SDS011;1496;51.404;7.232;2023-05-07T07:15:38;5.90;;;5.30;;
2972;SDS011;1496;51.404;7.232;2023-05-07T07:18:07;10.70;;;5.37;;
2972;SDS011;1496;51.404;7.232;2023-05-07T07:20:35;7.37;;;5.37;;
2972;SDS011;1496;51.404;7.232;2023-05-07T07:23:03;5.93;;;5.10;;
2972;SDS011;1496;51.404;7.232;2023-05-07T07:25:30;10.90;;;5.80;;
2972;SDS011;1496;51.404;7.232;2023-05-07T07:27:57;7.43;;;4.73;;
2972;SDS011;1496;51.404;7.232;2023-05-07T07:30:28;8.27;;;5.17;;
2972;SDS011;1496;51.404;7.232;2023-05-07T07:32:55;6.03;;;4.97;;
2972;SDS011;1496;51.404;7.232;2023-05-07T07:35:29;8.20;;;5.37;;
2972;SDS011;1496;51.404;7.232;2023-05-07T07:37:58;7.17;;;4.70;;
2972;SDS011;1496;51.404;7.232;2023-05-07T07:40:26;6.87;;;5.43;;
2972;SDS011;1496;51.404;7.232;2023-05-07T07:42:53;6.20;;;4.40;;
2972;SDS011;1496;51.404;7.232;2023-05-07T07:45:23;6.33;;;4.90;;
2972;SDS011;1496;51.404;7.232;2023-05-07T07:47:51;5.80;;;3.87;;
2972;SDS011;1496;51.404;7.232;2023-05-07T07:50:24;5.23;;;4.27;;
2972;SDS011;1496;51.404;7.232;2023-05-07T07:52:51;8.10;;;4.43;;
2972;SDS011;1496;51.404;7.232;2023-05-07T07:55:20;4.70;;;4.00;;
2972;SDS011;1496;51.404;7.232;2023-05-07T07:57:57;6.33;;;4.70;;
2972;SDS011;1496;51.404;7.232;2023-05-07T08:00:26;10.30;;;4.30;;
2972;SDS011;1496;51.404;7.232;2023-05-07T08:02:56;8.23;;;3.47;;
2972;SDS011;1496;51.404;7.232;2023-05-07T08:05:29;4.73;;;3.93;;
2972;SDS011;1496;51.404;7.232;2023-05-07T08:07:59;6.23;;;4.20;;
2972;SDS011;1496;51.404;7.232;2023-05-07T08:10:29;5.47;;;4.37;;
2972;SDS011;1496;51.404;7.232;2023-05-07T08:13:03;5.20;;;3.70;;
2972;SDS011;1496;51.404;7.232;2023-05-07T08:15:33;5.50;;;4.10;;
2972;SDS011;1496;51.404;7.232;2023-05-07T08:18:00;4.57;;;4.17;;
2972;SDS011;1496;51.404;7.232;2023-05-07T08:20:31;5.10;;;3.80;;
2972;SDS011;1496;51.404;7.232;2023-05-07T08:22:59;9.57;;;3.30;;
2972;SDS011;1496;51.404;7.232;2023-05-07T08:25:27;4.53;;;3.33;;
2972;SDS011;1496;51.404;7.232;2023-05-07T08:27:55;6.60;;;3.50;;
2972;SDS011;1496;51.404;7.232;2023-05-07T08:30:23;6.40;;;3.30;;
2972;SDS011;1496;51.404;7.232;2023-05-07T08:32:50;11.00;;;3.50;;
2972;SDS011;1496;51.404;7.232;2023-05-07T08:35:17;8.40;;;3.80;;
2972;SDS011;1496;51.404;7.232;2023-05-07T08:37:44;6.40;;;3.03;;
2972;SDS011;1496;51.404;7.232;2023-05-07T08:40:13;6.83;;;3.40;;
2972;SDS011;1496;51.404;7.232;2023-05-07T08:42:41;8.60;;;3.23;;
2972;SDS011;1496;51.404;7.232;2023-05-07T08:45:10;16.80;;;3.80;;
2972;SDS011;1496;51.404;7.232;2023-05-07T08:47:52;14.10;;;3.33;;
2972;SDS011;1496;51.404;7.232;2023-05-07T08:50:25;16.70;;;3.50;;
2972;SDS011;1496;51.404;7.232;2023-05-07T08:52:53;18.23;;;4.10;;
2972;SDS011;1496;51.404;7.232;2023-05-07T08:55:22;18.07;;;3.60;;
2972;SDS011;1496;51.404;7.232;2023-05-07T08:57:50;18.93;;;3.40;;
2972;SDS011;1496;51.404;7.232;2023-05-07T09:00:20;20.87;;;2.93;;
2972;SDS011;1496;51.404;7.232;2023-05-07T09:02:52;20.90;;;3.63;;
2972;SDS011;1496;51.404;7.232;2023-05-07T09:05:22;25.20;;;3.63;;
2972;SDS011;1496;51.404;7.232;2023-05-07T09:07:50;22.97;;;3.30;;
2972;SDS011;1496;51.404;7.232;2023-05-07T09:10:19;25.23;;;3.67;;
2972;SDS011;1496;51.404;7.232;2023-05-07T09:12:48;21.40;;;4.00;;
2972;SDS011;1496;51.404;7.232;2023-05-07T09:15:15;22.27;;;4.50;;
2972;SDS011;1496;51.404;7.232;2023-05-07T09:17:44;19.50;;;3.77;;
2972;SDS011;1496;51.404;7.232;2023-05-07T09:20:12;19.13;;;3.50;;
2972;SDS011;1496;51.404;7.232;2023-05-07T09:22:39;18.97;;;3.17;;
2972;SDS011;1496;51.404;7.232;2023-05-07T09:25:11;7.17;;;2.70;;
2972;SDS011;1496;51.404;7.232;2023-05-07T09:27:41;10.03;;;3.30;;
2972;SDS011;1496;51.404;7.232;2023-05-07T09:30:11;7.70;;;3.67;;
2972;SDS011;1496;51.404;7.232;2023-05-07T09:37:28;4.63;;;3.40;;
2972;SDS011;1496;51.404;7.232;2023-05-07T09:39:58;3.67;;;2.50;;
2972;SDS011;1496;51.404;7.232;2023-05-07T09:42:30;4.23;;;2.60;;
2972;SDS011;1496;51.404;7.232;2023-05-07T09:45:00;3.03;;;2.37;;
2972;SDS011;1496;51.404;7.232;2023-05-07T09:47:36;1.90;;;1.70;;
2972;SDS011;1496;51.404;7.232;2023-05-07T09:50:09;7.17;;;2.40;;
2972;SDS011;1496;51.404;7.232;2023-05-07T09:52:39;4.97;;;2.17;;
2972;SDS011;1496;51.404;7.232;2023-05-07T09:55:12;5.93;;;1.93;;
2972;SDS011;1496;51.404;7.232;2023-05-07T09:57:42;3.50;;;2.00;;
2972;SDS011;1496;51.404;7.232;2023-05-07T10:00:13;3.20;;;2.00;;
2972;SDS011;1496;51.404;7.232;2023-05-07T10:02:57;4.13;;;3.10;;
2972;SDS011;1496;51.404;7.232;2023-05-07T10:05:46;5.80;;;2.43;;
2972;SDS011;1496;51.404;7.232;2023-05-07T10:08:15;5.40;;;2.73;;
2972;SDS011;1496;51.404;7.232;2023-05-07T10:10:48;6.80;;;2.60;;
2972;SDS011;1496;51.404;7.232;2023-05-07T10:18:08;3.27;;;2.87;;
2972;SDS011;1496;51.404;7.232;2023-05-07T10:20:39;3.80;;;2.77;;
2972;SDS011;1496;51.404;7.232;2023-05-07T10:23:13;4.20;;;3.80;;
2972;SDS011;1496;51.404;7.232;2023-05-07T10:25:47;11.40;;;3.80;;
2972;SDS011;1496;51.404;7.232;2023-05-07T10:28:21;7.83;;;3.90;;
2972;SDS011;1496;51.404;7.232;2023-05-07T10:30:57;9.00;;;4.53;;
2972;SDS011;1496;51.404;7.232;2023-05-07T10:36:28;7.57;;;4.87;;
2972;SDS011;1496;51.404;7.232;2023-05-07T10:38:57;11.37;;;4.87;;
2972;SDS011;1496;51.404;7.232;2023-05-07T10:41:24;6.03;;;4.40;;
2972;SDS011;1496;51.404;7.232;2023-05-07T10:43:51;6.77;;;4.83;;
2972;SDS011;1496;51.404;7.232;2023-05-07T10:46:24;5.60;;;5.00;;
2972;SDS011;1496;51.404;7.232;2023-05-07T10:51:37;7.40;;;4.70;;
2972;SDS011;1496;51.404;7.232;2023-05-07T10:56:54;6.40;;;4.60;;
2972;SDS011;1496;51.404;7.232;2023-05-07T10:59:33;5.40;;;4.60;;
2972;SDS011;1496;51.404;7.232;2023-05-07T11:02:15;5.60;;;4.80;;
2972;SDS011;1496;51.404;7.232;2023-05-07T11:08:05;6.07;;;4.23;;
2972;SDS011;1496;51.404;7.232;2023-05-07T11:13:53;7.70;;;4.80;;
2972;SDS011;1496;51.404;7.232;2023-05-07T11:16:37;4.63;;;4.17;;
2972;SDS011;1496;51.404;7.232;2023-05-07T11:19:15;7.07;;;5.10;;
2972;SDS011;1496;51.404;7.232;2023-05-07T11:21:47;7.33;;;4.70;;
2972;SDS011;1496;51.404;7.232;2023-05-07T11:24:39;7.90;;;4.43;;
2972;SDS011;1496;51.404;7.232;2023-05-07T11:27:09;8.10;;;4.07;;
2972;SDS011;1496;51.404;7.232;2023-05-07T11:29:36;4.43;;;3.80;;
2972;SDS011;1496;51.404;7.232;2023-05-07T11:32:30;5.63;;;5.00;;
2972;SDS011;1496;51.404;7.232;2023-05-07T11:34:59;8.33;;;4.50;;
2972;SDS011;1496;51.404;7.232;2023-05-07T11:37:27;7.87;;;3.10;;
2972;SDS011;1496;51.404;7.232;2023-05-07T11:40:04;5.07;;;4.57;;
2972;SDS011;1496;51.404;7.232;2023-05-07T11:42:34;4.70;;;3.40;;
2972;SDS011;1496;51.404;7.232;2023-05-07T11:45:06;4.63;;;3.13;;
2972;SDS011;1496;51.404;7.232;2023-05-07T11:47:34;4.90;;;3.43;;
2972;SDS011;1496;51.404;7.232;2023-05-07T11:50:11;6.00;;;4.03;;
2972;SDS011;1496;51.404;7.232;2023-05-07T11:52:38;4.30;;;2.80;;
2972;SDS011;1496;51.404;7.232;2023-05-07T11:55:06;4.73;;;4.03;;
2972;SDS011;1496;51.404;7.232;2023-05-07T11:57:34;5.50;;;3.63;;
2972;SDS011;1496;51.404;7.232;2023-05-07T12:02:59;6.60;;;4.23;;
2972;SDS011;1496;51.404;7.232;2023-05-07T12:05:31;7.00;;;4.70;;
2972;SDS011;1496;51.404;7.232;2023-05-07T12:08:00;6.17;;;3.90;;
2972;SDS011;1496;51.404;7.232;2023-05-07T12:10:26;6.80;;;4.80;;
2972;SDS011;1496;51.404;7.232;2023-05-07T12:12:54;5.00;;;4.50;;
2972;SDS011;1496;51.404;7.232;2023-05-07T12:15:23;7.87;;;4.60;;
2972;SDS011;1496;51.404;7.232;2023-05-07T12:17:51;9.73;;;5.20;;
2972;SDS011;1496;51.404;7.232;2023-05-07T12:20:21;7.50;;;6.60;;
2972;SDS011;1496;51.404;7.232;2023-05-07T12:22:47;8.90;;;6.50;;
2972;SDS011;1496;51.404;7.232;2023-05-07T12:25:19;7.00;;;6.27;;
2972;SDS011;1496;51.404;7.232;2023-05-07T12:27:51;9.50;;;6.40;;
2972;SDS011;1496;51.404;7.232;2023-05-07T12:30:18;7.00;;;6.23;;
2972;SDS011;1496;51.404;7.232;2023-05-07T12:32:46;7.43;;;6.07;;
2972;SDS011;1496;51.404;7.232;2023-05-07T12:35:28;8.87;;;6.77;;
2972;SDS011;1496;51.404;7.232;2023-05-07T12:38:02;7.70;;;5.70;;
2972;SDS011;1496;51.404;7.232;2023-05-07T12:40:39;8.90;;;5.87;;
2972;SDS011;1496;51.404;7.232;2023-05-07T12:43:26;7.43;;;6.23;;
2972;SDS011;1496;51.404;7.232;2023-05-07T12:45:54;6.60;;;5.30;;
2972;SDS011;1496;51.404;7.232;2023-05-07T12:48:23;7.93;;;5.97;;
2972;SDS011;1496;51.404;7.232;2023-05-07T12:50:59;6.50;;;5.60;;
2972;SDS011;1496;51.404;7.232;2023-05-07T12:53:28;8.33;;;6.10;;
2972;SDS011;1496;51.404;7.232;2023-05-07T12:55:57;9.43;;;6.30;;
2972;SDS011;1496;51.404;7.232;2023-05-07T13:01:07;7.00;;;6.20;;
2972;SDS011;1496;51.404;7.232;2023-05-07T13:03:36;7.33;;;5.93;;
2972;SDS011;1496;51.404;7.232;2023-05-07T13:06:06;7.73;;;5.73;;
2972;SDS011;1496;51.404;7.232;2023-05-07T13:08:38;7.70;;;6.07;;
2972;SDS011;1496;51.404;7.232;2023-05-07T13:11:10;8.00;;;6.47;;
2972;SDS011;1496;51.404;7.232;2023-05-07T13:13:39;7.60;;;6.33;;
2972;SDS011;1496;51.404;7.232;2023-05-07T13:16:07;8.27;;;5.90;;
2972;SDS011;1496;51.404;7.232;2023-05-07T13:18:35;13.10;;;5.90;;
2972;SDS011;1496;51.404;7.232;2023-05-07T13:21:13;7.57;;;6.00;;
2972;SDS011;1496;51.404;7.232;2023-05-07T13:23:41;7.73;;;6.10;;
2972;SDS011;1496;51.404;7.232;2023-05-07T13:26:10;7.10;;;6.00;;
2972;SDS011;1496;51.404;7.232;2023-05-07T13:28:37;6.40;;;5.80;;
2972;SDS011;1496;51.404;7.232;2023-05-07T13:31:07;7.50;;;6.07;;
2972;SDS011;1496;51.404;7.232;2023-05-07T13:33:35;7.37;;;6.40;;
2972;SDS011;1496;51.404;7.232;2023-05-07T13:36:02;10.17;;;6.60;;
2972;SDS011;1496;51.404;7.232;2023-05-07T13:38:31;7.13;;;6.40;;
2972;SDS011;1496;51.404;7.232;2023-05-07T13:41:01;8.87;;;5.83;;
2972;SDS011;1496;51.404;7.232;2023-05-07T13:43:28;8.70;;;7.00;;
2972;SDS011;1496;51.404;7.232;2023-05-07T13:45:55;7.60;;;5.67;;
2972;SDS011;1496;51.404;7.232;2023-05-07T13:48:24;9.93;;;6.40;;
2972;SDS011;1496;51.404;7.232;2023-05-07T13:50:54;7.27;;;5.70;;
2972;SDS011;1496;51.404;7.232;2023-05-07T13:53:20;8.67;;;7.13;;
2972;SDS011;1496;51.404;7.232;2023-05-07T13:55:47;8.57;;;6.07;;
2972;SDS011;1496;51.404;7.232;2023-05-07T13:58:16;6.20;;;5.60;;
2972;SDS011;1496;51.404;7.232;2023-05-07T14:00:44;8.77;;;6.10;;
2972;SDS011;1496;51.404;7.232;2023-05-07T14:03:11;6.80;;;6.10;;
2972;SDS011;1496;51.404;7.232;2023-05-07T14:05:40;7.43;;;6.63;;
2972;SDS011;1496;51.404;7.232;2023-05-07T14:08:07;13.10;;;6.60;;
2972;SDS011;1496;51.404;7.232;2023-05-07T14:10:38;9.03;;;6.40;;
2972;SDS011;1496;51.404;7.232;2023-05-07T14:13:07;10.93;;;7.37;;
2972;SDS011;1496;51.404;7.232;2023-05-07T14:15:36;7.03;;;5.90;;
2972;SDS011;1496;51.404;7.232;2023-05-07T14:18:05;9.47;;;7.37;;
2972;SDS011;1496;51.404;7.232;2023-05-07T14:20:37;9.40;;;6.67;;
2972;SDS011;1496;51.404;7.232;2023-05-07T14:23:04;9.07;;;6.60;;
2972;SDS011;1496;51.404;7.232;2023-05-07T14:25:32;11.40;;;6.40;;
2972;SDS011;1496;51.404;7.232;2023-05-07T14:27:59;8.93;;;7.57;;
2972;SDS011;1496;51.404;7.232;2023-05-07T14:30:27;7.80;;;7.00;;
2972;SDS011;1496;51.404;7.232;2023-05-07T14:32:54;8.20;;;6.80;;
2972;SDS011;1496;51.404;7.232;2023-05-07T14:35:21;10.07;;;7.77;;
2972;SDS011;1496;51.404;7.232;2023-05-07T14:37:49;9.70;;;6.60;;
2972;SDS011;1496;51.404;7.232;2023-05-07T14:40:18;9.00;;;8.10;;
2972;SDS011;1496;51.404;7.232;2023-05-07T14:42:46;13.43;;;7.20;;
2972;SDS011;1496;51.404;7.232;2023-05-07T14:45:12;8.73;;;7.63;;
2972;SDS011;1496;51.404;7.232;2023-05-07T14:47:39;10.13;;;8.30;;
2972;SDS011;1496;51.404;7.232;2023-05-07T14:50:06;10.97;;;8.43;;
2972;SDS011;1496;51.404;7.232;2023-05-07T14:52:34;11.10;;;9.80;;
2972;SDS011;1496;51.404;7.232;2023-05-07T14:55:01;14.00;;;11.00;;
2972;SDS011;1496;51.404;7.232;2023-05-07T14:57:30;11.60;;;10.07;;
2972;SDS011;1496;51.404;7.232;2023-05-07T15:00:03;20.90;;;9.93;;
2972;SDS011;1496;51.404;7.232;2023-05-07T15:02:30;10.30;;;9.20;;
2972;SDS011;1496;51.404;7.232;2023-05-07T15:04:57;10.70;;;7.50;;
2972;SDS011;1496;51.404;7.232;2023-05-07T15:07:24;10.83;;;7.60;;
2972;SDS011;1496;51.404;7.232;2023-05-07T15:09:52;7.40;;;6.40;;
2972;SDS011;1496;51.404;7.232;2023-05-07T15:12:19;8.40;;;5.53;;
2972;SDS011;1496;51.404;7.232;2023-05-07T15:14:47;8.20;;;5.87;;
2972;SDS011;1496;51.404;7.232;2023-05-07T15:17:13;5.80;;;5.07;;
2972;SDS011;1496;51.404;7.232;2023-05-07T15:19:40;5.90;;;4.37;;
2972;SDS011;1496;51.404;7.232;2023-05-07T15:22:09;5.97;;;4.07;;
2972;SDS011;1496;51.404;7.232;2023-05-07T15:24:36;5.20;;;4.30;;
2972;SDS011;1496;51.404;7.232;2023-05-07T15:27:06;7.57;;;4.13;;
2972;SDS011;1496;51.404;7.232;2023-05-07T15:29:32;5.30;;;4.30;;
2972;SDS011;1496;51.404;7.232;2023-05-07T15:32:01;4.00;;;3.60;;
2972;SDS011;1496;51.404;7.232;2023-05-07T15:34:28;6.03;;;3.50;;
2972;SDS011;1496;51.404;7.232;2023-05-07T15:36:56;5.10;;;3.63;;
2972;SDS011;1496;51.404;7.232;2023-05-07T15:39:24;6.33;;;3.80;;
2972;SDS011;1496;51.404;7.232;2023-05-07T15:41:52;4.50;;;3.80;;
2972;SDS011;1496;51.404;7.232;2023-05-07T15:44:18;4.70;;;4.13;;
2972;SDS011;1496;51.404;7.232;2023-05-07T15:46:47;5.27;;;4.67;;
2972;SDS011;1496;51.404;7.232;2023-05-07T15:49:15;7.27;;;4.30;;
2972;SDS011;1496;51.404;7.232;2023-05-07T15:51:42;9.47;;;4.63;;
2972;SDS011;1496;51.404;7.232;2023-05-07T15:54:09;10.77;;;4.80;;
2972;SDS011;1496;51.404;7.232;2023-05-07T15:56:39;20.60;;;5.20;;
2972;SDS011;1496;51.404;7.232;2023-05-07T15:59:07;12.30;;;5.30;;